Terminal Aerodrome Forecast
Issued by NWS Binghamton, NY

Home | Current Version | Previous Version | Text Only | Print | Product List | Glossary On
Versions: 1 2 3 4 5 6 7 8 9 10 11 12 13 14 15 16 17 18
000
FTUS41 KBGM 030845 AAA
TAFSYR
TAF AMD
KSYR 030845Z 0309/0406 21010KT P6SM BKN200
     FM031500 23012G18KT P6SM SCT080
      TEMPO 0318/0322 4SM TSRA OVC035CB
     FM032200 24007KT P6SM FEW040 SCT200=

USA.gov is the U.S. government's official web portal to all federal, state and local government web resources and services.